createdAt,value
2018-02-25T00:00:02.681Z,0.00
2018-02-25T00:01:02.634Z,0.00
2018-02-25T00:02:02.588Z,0.00
2018-02-25T00:03:02.542Z,0.00
2018-02-25T00:04:02.511Z,0.00
2018-02-25T00:05:02.442Z,0.00
2018-02-25T00:06:02.400Z,0.00
2018-02-25T00:07:02.343Z,0.00
2018-02-25T00:08:02.304Z,0.00
2018-02-25T00:09:02.279Z,0.00
2018-02-25T00:10:02.208Z,0.00
2018-02-25T00:11:02.153Z,0.00
2018-02-25T00:12:02.114Z,0.00
2018-02-25T00:13:02.058Z,0.00
2018-02-25T00:14:02.041Z,0.00
2018-02-25T00:15:01.971Z,0.00
2018-02-25T00:16:01.922Z,0.00
2018-02-25T00:17:01.870Z,0.00
2018-02-25T00:18:01.819Z,0.00
2018-02-25T00:19:01.802Z,0.00
2018-02-25T00:20:01.722Z,0.00
2018-02-25T00:21:01.684Z,0.00
2018-02-25T00:22:01.625Z,0.00
2018-02-25T00:23:01.580Z,0.00
2018-02-25T00:24:01.531Z,0.00
2018-02-25T00:25:01.515Z,0.00
2018-02-25T00:26:01.443Z,0.00
2018-02-25T00:27:01.393Z,0.00
2018-02-25T00:28:01.348Z,0.00
2018-02-25T00:29:01.313Z,0.00
2018-02-25T00:30:01.271Z,0.00
2018-02-25T00:31:01.201Z,0.00
2018-02-25T00:32:01.151Z,0.00
2018-02-25T00:33:01.099Z,0.00
2018-02-25T00:34:01.051Z,0.00
2018-02-25T00:35:01.033Z,0.00
2018-02-25T00:36:00.957Z,0.00
2018-02-25T00:37:00.910Z,0.00
2018-02-25T00:38:00.861Z,0.00
2018-02-25T00:39:00.812Z,0.00
2018-02-25T00:40:00.797Z,0.00
2018-02-25T00:41:00.740Z,0.00
2018-02-25T00:42:00.673Z,0.00
2018-02-25T00:43:00.622Z,0.00
2018-02-25T00:44:00.573Z,0.00
2018-02-25T00:45:00.531Z,0.00
2018-02-25T00:46:00.508Z,0.00
2018-02-25T00:47:00.428Z,0.00
2018-02-25T00:48:00.379Z,0.00
2018-02-25T00:49:00.342Z,0.00
2018-02-25T00:50:00.288Z,0.00
2018-02-25T00:51:00.261Z,0.00
2018-02-25T00:52:00.192Z,0.00
2018-02-25T00:53:00.139Z,0.00
2018-02-25T00:54:00.090Z,0.00
2018-02-25T00:55:00.044Z,0.00
2018-02-25T00:56:00.027Z,0.00
2018-02-25T00:56:59.948Z,0.00
2018-02-25T00:57:59.909Z,0.00
2018-02-25T00:58:59.862Z,0.00
2018-02-25T00:59:59.812Z,0.00
2018-02-25T01:00:59.782Z,0.00
2018-02-25T01:01:59.709Z,0.00
2018-02-25T01:02:59.663Z,0.00
2018-02-25T01:03:59.618Z,0.00
2018-02-25T01:04:59.570Z,0.00
2018-02-25T01:05:59.513Z,0.00
2018-02-25T01:06:59.498Z,0.00
2018-02-25T01:07:59.421Z,0.00
2018-02-25T01:08:59.375Z,0.00
2018-02-25T01:09:59.328Z,0.00
2018-02-25T01:10:59.293Z,0.00
2018-02-25T01:11:59.253Z,0.00
2018-02-25T01:12:59.187Z,0.00
2018-02-25T01:13:59.125Z,0.00
2018-02-25T01:14:59.091Z,0.00
2018-02-25T01:15:59.040Z,0.00
2018-02-25T01:16:59.006Z,0.00
2018-02-25T01:17:58.938Z,0.00
2018-02-25T01:18:58.891Z,0.00
2018-02-25T01:19:58.844Z,0.00
2018-02-25T01:20:58.803Z,0.00
2018-02-25T01:21:58.764Z,0.00
2018-02-25T01:22:58.701Z,0.00
2018-02-25T01:23:58.654Z,0.00
2018-02-25T01:24:58.601Z,0.00
2018-02-25T01:25:58.556Z,0.00
2018-02-25T01:26:58.528Z,0.00
2018-02-25T01:27:58.460Z,0.00
2018-02-25T01:28:58.402Z,0.00
2018-02-25T01:29:58.363Z,0.00
2018-02-25T01:30:58.306Z,0.00
2018-02-25T01:31:58.262Z,0.00
2018-02-25T01:32:58.235Z,0.00
2018-02-25T01:33:58.161Z,0.00
2018-02-25T01:34:58.114Z,0.00
2018-02-25T01:35:58.077Z,0.00
2018-02-25T01:36:58.026Z,0.00
2018-02-25T01:37:58.005Z,0.00
2018-02-25T01:38:57.927Z,0.00
2018-02-25T01:39:57.883Z,0.00
2018-02-25T01:40:57.832Z,0.00
2018-02-25T01:41:57.787Z,0.00
2018-02-25T01:42:57.754Z,0.00
2018-02-25T01:43:57.682Z,0.00
2018-02-25T01:44:57.634Z,0.00
2018-02-25T01:45:57.608Z,0.00
2018-02-25T01:46:57.534Z,0.00
2018-02-25T01:47:57.509Z,0.00
2018-02-25T01:48:57.439Z,0.00
2018-02-25T01:49:57.398Z,0.00
2018-02-25T01:50:57.346Z,0.00
2018-02-25T01:51:57.294Z,0.00
2018-02-25T01:52:57.284Z,0.00
2018-02-25T01:53:57.195Z,0.00
2018-02-25T01:54:57.173Z,0.00
2018-02-25T01:55:57.104Z,0.00
2018-02-25T01:56:57.053Z,0.00
2018-02-25T01:57:57.003Z,0.00
2018-02-25T01:58:56.988Z,0.00
2018-02-25T01:59:56.911Z,0.00
2018-02-25T02:00:56.858Z,0.00
2018-02-25T02:01:56.807Z,0.00
2018-02-25T02:02:56.770Z,0.00
2018-02-25T02:03:56.740Z,0.00
2018-02-25T02:04:56.663Z,0.00
2018-02-25T02:05:56.615Z,0.00
2018-02-25T02:06:56.564Z,0.00
2018-02-25T02:07:56.524Z,0.00
2018-02-25T02:08:56.500Z,0.00
2018-02-25T02:09:56.430Z,0.00
2018-02-25T02:10:56.381Z,0.00
2018-02-25T02:11:56.328Z,0.00
2018-02-25T02:12:56.284Z,0.00
2018-02-25T02:13:56.260Z,0.00
2018-02-25T02:14:56.183Z,0.00
2018-02-25T02:15:56.129Z,0.00
2018-02-25T02:16:56.084Z,0.00
2018-02-25T02:17:56.032Z,0.00
2018-02-25T02:18:55.996Z,0.00
2018-02-25T02:19:55.961Z,0.00
2018-02-25T02:20:55.898Z,0.00
2018-02-25T02:21:55.842Z,0.00
2018-02-25T02:22:55.789Z,0.00
2018-02-25T02:23:55.743Z,0.00
2018-02-25T02:24:55.731Z,0.00
2018-02-25T02:25:55.650Z,0.00
2018-02-25T02:26:55.602Z,0.00
2018-02-25T02:27:55.554Z,0.00
2018-02-25T02:28:55.502Z,0.00
2018-02-25T02:29:55.502Z,0.00
2018-02-25T02:30:55.398Z,0.00
2018-02-25T02:31:55.360Z,0.00
2018-02-25T02:32:55.306Z,0.00
2018-02-25T02:33:55.259Z,0.00
2018-02-25T02:34:55.228Z,0.00
2018-02-25T02:35:55.162Z,0.00
2018-02-25T02:36:55.113Z,0.00
2018-02-25T02:37:55.059Z,0.00
2018-02-25T02:38:55.013Z,0.00
2018-02-25T02:39:55.053Z,0.00
2018-02-25T02:40:54.919Z,0.00
2018-02-25T02:41:54.870Z,0.00
2018-02-25T02:42:54.826Z,0.00
2018-02-25T02:43:54.767Z,0.00
2018-02-25T02:44:54.716Z,0.00
2018-02-25T02:45:54.701Z,0.00
2018-02-25T02:46:54.629Z,0.00
2018-02-25T02:47:54.582Z,0.00
2018-02-25T02:48:54.528Z,0.00
2018-02-25T02:49:54.483Z,0.00
2018-02-25T02:50:54.448Z,0.00
2018-02-25T02:51:54.389Z,0.00
2018-02-25T02:52:54.333Z,0.00
2018-02-25T02:53:54.280Z,0.00
2018-02-25T02:54:54.239Z,0.00
2018-02-25T02:55:54.217Z,0.00
2018-02-25T02:56:54.134Z,0.00
2018-02-25T02:57:54.085Z,0.00
2018-02-25T02:58:54.044Z,0.00
2018-02-25T02:59:53.989Z,0.00
2018-02-25T03:00:53.972Z,0.00
2018-02-25T03:01:53.898Z,0.00
2018-02-25T03:02:53.858Z,0.00
2018-02-25T03:03:53.791Z,0.00
2018-02-25T03:04:53.763Z,0.00
2018-02-25T03:05:53.732Z,0.00
2018-02-25T03:06:53.655Z,0.00
2018-02-25T03:07:53.602Z,0.00
2018-02-25T03:08:53.557Z,0.00
2018-02-25T03:09:53.507Z,0.00
2018-02-25T03:10:53.452Z,0.00
2018-02-25T03:11:53.429Z,0.00
2018-02-25T03:12:53.357Z,0.00
2018-02-25T03:13:53.314Z,0.00
2018-02-25T03:14:53.256Z,0.00
2018-02-25T03:15:53.222Z,0.00
2018-02-25T03:16:53.197Z,0.00
2018-02-25T03:17:53.112Z,0.00
2018-02-25T03:18:53.061Z,0.00
2018-02-25T03:19:53.013Z,0.00
2018-02-25T03:20:52.965Z,0.00
2018-02-25T03:21:52.952Z,0.00
2018-02-25T03:22:52.871Z,0.00
2018-02-25T03:23:52.818Z,0.00
2018-02-25T03:24:52.777Z,0.00
2018-02-25T03:25:52.740Z,0.00
2018-02-25T03:26:52.698Z,0.00
2018-02-25T03:27:52.630Z,0.00
2018-02-25T03:28:52.603Z,0.00
2018-02-25T03:29:52.532Z,0.00
2018-02-25T03:30:52.485Z,0.00
2018-02-25T03:31:52.438Z,0.00
2018-02-25T03:32:52.419Z,0.00
2018-02-25T03:33:52.328Z,0.00
2018-02-25T03:34:52.279Z,0.00
2018-02-25T03:35:52.236Z,0.00
2018-02-25T03:36:52.190Z,0.00
2018-02-25T03:37:52.168Z,0.00
2018-02-25T03:38:52.102Z,0.00
2018-02-25T03:39:52.037Z,0.00
2018-02-25T03:40:51.988Z,0.00
2018-02-25T03:41:51.949Z,0.00
2018-02-25T03:42:51.909Z,0.00
2018-02-25T03:43:51.848Z,0.00
2018-02-25T03:44:51.802Z,0.00
2018-02-25T03:45:51.748Z,0.00
2018-02-25T03:46:51.695Z,0.00
2018-02-25T03:47:51.675Z,0.00
2018-02-25T03:48:51.613Z,0.00
2018-02-25T03:49:51.544Z,0.00
2018-02-25T03:50:51.499Z,0.00
2018-02-25T03:51:51.452Z,0.00
2018-02-25T03:52:51.430Z,0.00
2018-02-25T03:53:51.361Z,0.00
2018-02-25T03:54:51.310Z,0.00
2018-02-25T03:55:51.261Z,0.00
2018-02-25T03:56:51.205Z,0.00
2018-02-25T03:57:51.156Z,0.00
2018-02-25T03:58:51.140Z,0.00
2018-02-25T03:59:51.065Z,0.00
2018-02-25T04:00:51.009Z,0.00
2018-02-25T04:01:50.967Z,0.00
2018-02-25T04:02:50.922Z,0.00
2018-02-25T04:03:50.898Z,0.00
2018-02-25T04:04:50.826Z,0.00
2018-02-25T04:05:50.777Z,0.00
2018-02-25T04:06:50.727Z,0.00
2018-02-25T04:07:50.666Z,0.00
2018-02-25T04:08:50.644Z,0.00
2018-02-25T04:09:50.569Z,0.00
2018-02-25T04:10:50.519Z,0.00
2018-02-25T04:11:50.474Z,0.00
2018-02-25T04:12:50.420Z,0.00
2018-02-25T04:13:50.399Z,0.00
2018-02-25T04:14:50.329Z,0.00
2018-02-25T04:15:50.286Z,0.00
2018-02-25T04:16:50.251Z,0.00
2018-02-25T04:17:50.180Z,0.00
2018-02-25T04:18:50.162Z,0.00
2018-02-25T04:19:50.091Z,0.00
2018-02-25T04:20:50.037Z,0.00
2018-02-25T04:21:49.983Z,0.00
2018-02-25T04:22:49.934Z,0.00
2018-02-25T04:23:49.884Z,0.00
2018-02-25T04:24:49.856Z,0.00
2018-02-25T04:25:49.796Z,0.00
2018-02-25T04:26:49.742Z,0.00
2018-02-25T04:27:49.692Z,0.00
2018-02-25T04:28:49.649Z,0.00
2018-02-25T04:29:49.611Z,0.00
2018-02-25T04:30:49.547Z,0.00
2018-02-25T04:31:49.489Z,0.00
2018-02-25T04:32:49.451Z,0.00
2018-02-25T04:33:49.394Z,0.00
2018-02-25T04:34:49.375Z,0.00
2018-02-25T04:35:49.304Z,0.00
2018-02-25T04:36:49.251Z,0.00
2018-02-25T04:37:49.199Z,0.00
2018-02-25T04:38:49.156Z,0.00
2018-02-25T04:39:49.129Z,0.00
2018-02-25T04:40:49.050Z,0.00
2018-02-25T04:41:49.002Z,0.00
2018-02-25T04:42:48.959Z,0.00
2018-02-25T04:43:48.909Z,0.00
2018-02-25T04:44:48.890Z,0.00
2018-02-25T04:45:48.807Z,0.00
2018-02-25T04:46:48.756Z,0.00
2018-02-25T04:47:48.710Z,0.00
2018-02-25T04:48:48.660Z,0.00
2018-02-25T04:49:48.618Z,0.00
2018-02-25T04:50:48.592Z,0.00
2018-02-25T04:51:48.521Z,0.00
2018-02-25T04:52:48.473Z,0.00
2018-02-25T04:53:48.417Z,0.00
2018-02-25T04:54:48.364Z,0.00
2018-02-25T04:55:48.338Z,0.00
2018-02-25T04:56:48.266Z,0.00
2018-02-25T04:57:48.245Z,0.00
2018-02-25T04:58:48.165Z,0.00
2018-02-25T04:59:48.123Z,0.00
2018-02-25T05:00:48.092Z,0.00
2018-02-25T05:01:48.021Z,0.00
2018-02-25T05:02:47.972Z,0.00
2018-02-25T05:03:47.930Z,0.00
2018-02-25T05:04:47.873Z,0.00
2018-02-25T05:05:47.855Z,0.00
2018-02-25T05:06:47.776Z,0.00
2018-02-25T05:07:47.723Z,0.00
2018-02-25T05:08:47.683Z,0.00
2018-02-25T05:09:47.634Z,0.00
2018-02-25T05:10:47.576Z,0.00
2018-02-25T05:11:47.557Z,0.00
2018-02-25T05:12:47.484Z,0.00
2018-02-25T05:13:47.444Z,0.00
2018-02-25T05:14:47.384Z,0.00
2018-02-25T05:15:47.333Z,0.00
2018-02-25T05:16:47.305Z,0.00
2018-02-25T05:17:47.247Z,0.00
2018-02-25T05:18:47.188Z,0.00
2018-02-25T05:19:47.140Z,0.00
2018-02-25T05:20:47.094Z,0.00
2018-02-25T05:21:47.061Z,0.00
2018-02-25T05:22:46.989Z,0.00
2018-02-25T05:23:46.947Z,0.00
2018-02-25T05:24:46.891Z,0.00
2018-02-25T05:25:46.847Z,0.00
2018-02-25T05:26:46.816Z,0.00
2018-02-25T05:27:46.748Z,0.00
2018-02-25T05:28:46.691Z,0.00
2018-02-25T05:29:46.648Z,0.00
2018-02-25T05:30:46.590Z,0.00
2018-02-25T05:31:46.573Z,0.00
2018-02-25T05:32:46.502Z,0.00
2018-02-25T05:33:46.444Z,0.00
2018-02-25T05:34:46.398Z,0.00
2018-02-25T05:35:46.352Z,0.00
2018-02-25T05:36:46.305Z,0.00
2018-02-25T05:37:46.280Z,0.00
2018-02-25T05:38:46.207Z,0.00
2018-02-25T05:39:46.159Z,0.00
2018-02-25T05:40:46.105Z,0.00
2018-02-25T05:41:46.056Z,0.00
2018-02-25T05:42:46.034Z,0.00
2018-02-25T05:43:45.958Z,0.00
2018-02-25T05:44:45.910Z,0.00
2018-02-25T05:45:45.857Z,0.00
2018-02-25T05:46:45.803Z,0.00
2018-02-25T05:47:45.785Z,0.00
2018-02-25T05:48:45.713Z,0.00
2018-02-25T05:49:45.662Z,0.00
2018-02-25T05:50:45.613Z,0.00
2018-02-25T05:51:45.562Z,0.00
2018-02-25T05:52:45.531Z,0.00
2018-02-25T05:53:45.461Z,0.00
2018-02-25T05:54:45.458Z,0.00
2018-02-25T05:55:45.363Z,0.00
2018-02-25T05:56:45.311Z,0.00
2018-02-25T05:57:45.291Z,0.00
2018-02-25T05:58:45.220Z,0.00
2018-02-25T05:59:45.169Z,0.00
2018-02-25T06:00:45.121Z,0.00
2018-02-25T06:01:45.067Z,0.00
2018-02-25T06:02:45.042Z,0.00
2018-02-25T06:03:44.971Z,0.00
2018-02-25T06:04:44.926Z,0.00
2018-02-25T06:05:44.876Z,0.00
2018-02-25T06:06:44.886Z,0.00
2018-02-25T06:07:44.770Z,0.00
2018-02-25T06:08:44.751Z,0.00
2018-02-25T06:09:44.681Z,0.00
2018-02-25T06:10:44.625Z,0.00
2018-02-25T06:11:44.583Z,0.00
2018-02-25T06:12:44.521Z,0.00
2018-02-25T06:13:44.504Z,0.00
2018-02-25T06:14:44.423Z,5.63
2018-02-25T06:15:44.383Z,5.63
2018-02-25T06:16:44.325Z,5.63
2018-02-25T06:17:44.284Z,5.63
2018-02-25T06:18:44.255Z,5.63
2018-02-25T06:19:44.187Z,5.63
2018-02-25T06:20:44.134Z,11.25
2018-02-25T06:21:44.086Z,11.25
2018-02-25T06:22:44.036Z,11.25
2018-02-25T06:23:44.008Z,11.25
2018-02-25T06:24:43.931Z,16.88
2018-02-25T06:25:43.879Z,16.88
2018-02-25T06:26:43.832Z,16.88
2018-02-25T06:27:43.781Z,16.88
2018-02-25T06:28:43.732Z,22.50
2018-02-25T06:29:43.715Z,22.50
2018-02-25T06:30:43.641Z,22.50
2018-02-25T06:31:43.594Z,28.13
2018-02-25T06:32:43.544Z,28.13
2018-02-25T06:33:43.482Z,28.13
2018-02-25T06:34:43.466Z,33.75
2018-02-25T06:35:43.392Z,33.75
2018-02-25T06:36:43.380Z,39.38
2018-02-25T06:37:43.297Z,39.38
2018-02-25T06:38:43.239Z,39.38
2018-02-25T06:39:43.215Z,45.00
2018-02-25T06:40:43.146Z,45.00
2018-02-25T06:41:43.099Z,50.63
2018-02-25T06:42:43.042Z,50.63
2018-02-25T06:43:42.999Z,50.63
2018-02-25T06:44:42.977Z,56.25
2018-02-25T06:45:42.893Z,56.25
2018-02-25T06:46:42.855Z,61.88
2018-02-25T06:47:42.793Z,61.88
2018-02-25T06:48:42.752Z,67.50
2018-02-25T06:49:42.702Z,67.50
2018-02-25T06:50:42.677Z,67.50
2018-02-25T06:51:42.595Z,73.13
2018-02-25T06:52:42.554Z,73.13
2018-02-25T06:53:42.505Z,78.75
2018-02-25T06:54:42.482Z,78.75
2018-02-25T06:55:42.406Z,84.38
2018-02-25T06:56:42.372Z,84.38
2018-02-25T06:57:42.304Z,90.00
2018-02-25T06:58:42.253Z,95.63
2018-02-25T06:59:42.202Z,106.88
2018-02-25T07:00:42.178Z,146.25
2018-02-25T07:01:42.111Z,202.50
2018-02-25T07:02:42.061Z,236.25
2018-02-25T07:03:42.014Z,247.50
2018-02-25T07:04:41.964Z,253.13
2018-02-25T07:05:41.927Z,264.38
2018-02-25T07:06:41.870Z,270.00
2018-02-25T07:07:41.812Z,275.63
2018-02-25T07:08:41.771Z,286.88
2018-02-25T07:09:41.721Z,298.13
2018-02-25T07:10:41.697Z,298.13
2018-02-25T07:11:41.617Z,303.75
2018-02-25T07:12:41.576Z,309.38
2018-02-25T07:13:41.517Z,315.00
2018-02-25T07:14:41.478Z,326.25
2018-02-25T07:15:41.456Z,326.25
2018-02-25T07:16:41.403Z,331.88
2018-02-25T07:17:41.335Z,337.50
2018-02-25T07:18:41.284Z,343.13
2018-02-25T07:19:41.249Z,354.38
2018-02-25T07:20:41.194Z,360.00
2018-02-25T07:21:41.180Z,365.63
2018-02-25T07:22:41.106Z,371.25
2018-02-25T07:23:41.064Z,376.88
2018-02-25T07:24:41.016Z,382.50
2018-02-25T07:25:40.991Z,388.13
2018-02-25T07:26:40.951Z,393.75
2018-02-25T07:27:40.870Z,405.00
2018-02-25T07:28:40.823Z,410.63
2018-02-25T07:29:40.781Z,416.25
2018-02-25T07:30:40.744Z,421.88
2018-02-25T07:31:40.722Z,427.50
2018-02-25T07:32:40.666Z,427.50
2018-02-25T07:33:40.601Z,438.75
2018-02-25T07:34:40.571Z,438.75
2018-02-25T07:35:40.517Z,444.38
2018-02-25T07:36:40.493Z,450.00
2018-02-25T07:37:40.433Z,455.63
2018-02-25T07:38:40.387Z,461.25
2018-02-25T07:39:40.341Z,466.88
2018-02-25T07:40:40.305Z,478.13
2018-02-25T07:41:40.257Z,483.75
2018-02-25T07:42:40.236Z,483.75
2018-02-25T07:43:40.166Z,489.38
2018-02-25T07:44:40.134Z,500.63
2018-02-25T07:45:40.074Z,506.25
2018-02-25T07:46:40.027Z,511.88
2018-02-25T07:47:40.022Z,517.50
2018-02-25T07:48:39.948Z,528.75
2018-02-25T07:49:39.901Z,528.75
2018-02-25T07:50:39.874Z,534.38
2018-02-25T07:51:39.828Z,540.00
2018-02-25T07:52:39.795Z,540.00
2018-02-25T07:53:39.735Z,545.63
2018-02-25T07:54:39.695Z,551.25
2018-02-25T07:55:39.650Z,556.88
2018-02-25T07:56:39.603Z,562.50
2018-02-25T07:57:39.590Z,568.13
2018-02-25T07:58:39.537Z,579.38
2018-02-25T07:59:39.487Z,590.63
2018-02-25T08:00:39.445Z,618.75
2018-02-25T08:01:39.394Z,630.00
2018-02-25T08:02:39.386Z,624.38
2018-02-25T08:03:39.307Z,630.00
2018-02-25T08:04:39.277Z,663.75
2018-02-25T08:05:39.238Z,697.50
2018-02-25T08:06:39.192Z,680.63
2018-02-25T08:07:39.843Z,669.38
2018-02-25T08:08:39.816Z,697.50
2018-02-25T08:09:39.059Z,731.25
2018-02-25T08:10:39.034Z,765.00
2018-02-25T08:11:38.984Z,821.25
2018-02-25T08:12:38.943Z,905.63
2018-02-25T08:13:38.946Z,1051.88
2018-02-25T08:14:38.901Z,1209.38
2018-02-25T08:15:38.816Z,1310.63
2018-02-25T08:16:38.770Z,1316.25
2018-02-25T08:17:38.734Z,1321.88
2018-02-25T08:18:38.721Z,1316.25
2018-02-25T08:19:38.653Z,1338.75
2018-02-25T08:20:38.613Z,1383.75
2018-02-25T08:21:38.570Z,1434.38
2018-02-25T08:22:38.565Z,1434.38
2018-02-25T08:23:38.511Z,1468.13
2018-02-25T08:24:38.445Z,1563.75
2018-02-25T08:25:38.405Z,1749.38
2018-02-25T08:26:38.354Z,1923.75
2018-02-25T08:27:38.323Z,2126.25
2018-02-25T08:28:38.283Z,2351.25
2018-02-25T08:29:38.268Z,2688.75
2018-02-25T08:30:38.186Z,2947.50
2018-02-25T08:31:38.154Z,3335.63
2018-02-25T08:32:38.107Z,3661.88
2018-02-25T08:33:38.086Z,3791.25
2018-02-25T08:34:38.058Z,3577.50
2018-02-25T08:35:38.003Z,3346.88
2018-02-25T08:36:37.979Z,3234.38
2018-02-25T08:37:37.900Z,3161.25
2018-02-25T08:38:37.869Z,3065.63
2018-02-25T08:39:37.840Z,2857.50
2018-02-25T08:40:37.777Z,2621.25
2018-02-25T08:41:37.734Z,2463.75
2018-02-25T08:42:37.699Z,2340.00
2018-02-25T08:43:37.654Z,2244.38
2018-02-25T08:44:37.642Z,2075.63
2018-02-25T08:45:37.572Z,1951.88
2018-02-25T08:46:37.548Z,1856.25
2018-02-25T08:47:37.498Z,1766.25
2018-02-25T08:48:37.457Z,1749.38
2018-02-25T08:49:37.444Z,1704.38
2018-02-25T08:50:37.377Z,1681.88
2018-02-25T08:51:37.332Z,1653.75
2018-02-25T08:52:37.293Z,1620.00
2018-02-25T08:53:37.254Z,1631.25
2018-02-25T08:54:37.213Z,1586.25
2018-02-25T08:55:37.199Z,1524.38
2018-02-25T08:56:37.129Z,1473.75
2018-02-25T08:57:37.087Z,1406.25
2018-02-25T08:58:37.049Z,1383.75
2018-02-25T08:59:37.032Z,1586.25
2018-02-25T09:00:36.966Z,1552.50
2018-02-25T09:01:36.941Z,1535.63
2018-02-25T09:02:36.934Z,1546.88
2018-02-25T09:03:36.857Z,1552.50
2018-02-25T09:04:36.839Z,1530.00
2018-02-25T09:05:36.794Z,1496.25
2018-02-25T09:06:36.729Z,1490.63
2018-02-25T09:07:36.690Z,1395.00
2018-02-25T09:08:36.658Z,1299.38
2018-02-25T09:09:36.605Z,1271.25
2018-02-25T09:10:36.586Z,1327.50
2018-02-25T09:11:36.527Z,1400.63
2018-02-25T09:12:36.496Z,1423.13
2018-02-25T09:13:36.455Z,1423.13
2018-02-25T09:14:36.413Z,1389.38
2018-02-25T09:15:36.403Z,1395.00
2018-02-25T09:16:36.347Z,1428.75
2018-02-25T09:17:36.297Z,1428.75
2018-02-25T09:18:36.252Z,1468.13
2018-02-25T09:19:36.221Z,1445.63
2018-02-25T09:20:36.212Z,1445.63
2018-02-25T09:21:36.164Z,1468.13
2018-02-25T09:22:36.102Z,1490.63
2018-02-25T09:23:36.065Z,1490.63
2018-02-25T09:24:36.034Z,1485.00
2018-02-25T09:25:35.985Z,1485.00
2018-02-25T09:26:36.050Z,1501.88
2018-02-25T09:27:35.912Z,1558.13
2018-02-25T09:28:35.929Z,1546.88
2018-02-25T09:29:35.837Z,1530.00
2018-02-25T09:30:35.803Z,1541.25
2018-02-25T09:31:35.780Z,1558.13
2018-02-25T09:32:35.724Z,1597.50
2018-02-25T09:33:35.677Z,1608.75
2018-02-25T09:34:36.407Z,1591.88
2018-02-25T09:35:36.405Z,1552.50
2018-02-25T09:36:35.608Z,1468.13
2018-02-25T09:37:35.538Z,1423.13
2018-02-25T09:38:35.498Z,1389.38
2018-02-25T09:39:35.456Z,1372.50
2018-02-25T09:40:35.446Z,1310.63
2018-02-25T09:41:35.427Z,1305.00
2018-02-25T09:42:35.345Z,1350.00
2018-02-25T09:43:35.297Z,1344.38
2018-02-25T09:44:35.264Z,1389.38
2018-02-25T09:45:35.226Z,1445.63
2018-02-25T09:46:35.194Z,1479.38
2018-02-25T09:47:35.169Z,1524.38
2018-02-25T09:48:35.112Z,1524.38
2018-02-25T09:49:35.079Z,1507.50
2018-02-25T09:50:35.029Z,1485.00
2018-02-25T09:51:34.989Z,1479.38
2018-02-25T09:52:34.980Z,1530.00
2018-02-25T09:53:34.920Z,1586.25
2018-02-25T09:54:34.873Z,1620.00
2018-02-25T09:55:34.837Z,1670.63
2018-02-25T09:56:34.806Z,1738.13
2018-02-25T09:57:34.780Z,1816.88
2018-02-25T09:58:34.724Z,1895.63
2018-02-25T09:59:34.680Z,1980.00
2018-02-25T10:00:34.651Z,2075.63
2018-02-25T10:01:34.616Z,2199.38
2018-02-25T10:02:34.607Z,2244.38
2018-02-25T10:03:34.544Z,2154.38
2018-02-25T10:04:34.513Z,1929.38
2018-02-25T10:05:34.464Z,1783.13
2018-02-25T10:06:34.422Z,1631.25
2018-02-25T10:07:34.373Z,1518.75
2018-02-25T10:08:34.369Z,1440.00
2018-02-25T10:09:34.301Z,1389.38
2018-02-25T10:10:34.258Z,1327.50
2018-02-25T10:11:34.244Z,1310.63
2018-02-25T10:12:34.193Z,1282.50
2018-02-25T10:13:34.173Z,1248.75
2018-02-25T10:14:34.107Z,1237.50
2018-02-25T10:15:34.071Z,1215.00
2018-02-25T10:16:34.030Z,1186.88
2018-02-25T10:17:33.998Z,1175.63
2018-02-25T10:18:33.978Z,1175.63
2018-02-25T10:19:33.920Z,1181.25
2018-02-25T10:20:33.888Z,1186.88
2018-02-25T10:21:33.850Z,1220.63
2018-02-25T10:22:33.809Z,1254.38
2018-02-25T10:23:33.788Z,1608.75
2018-02-25T10:24:33.752Z,2115.00
2018-02-25T10:25:33.689Z,2289.38
2018-02-25T10:26:33.653Z,2126.25
2018-02-25T10:27:33.627Z,2064.38
2018-02-25T10:28:33.600Z,1985.63
2018-02-25T10:29:33.546Z,2143.13
2018-02-25T10:30:33.514Z,2266.88
2018-02-25T10:31:33.465Z,2188.13
2018-02-25T10:32:33.422Z,2075.63
2018-02-25T10:33:33.419Z,2165.63
2018-02-25T10:34:33.358Z,2250.00
2018-02-25T10:35:33.333Z,2283.75
2018-02-25T10:36:33.278Z,2340.00
2018-02-25T10:37:33.238Z,2452.50
2018-02-25T10:38:33.206Z,2463.75
2018-02-25T10:39:33.190Z,2430.00
2018-02-25T10:40:33.143Z,2458.13
2018-02-25T10:41:33.084Z,2570.63
2018-02-25T10:42:33.062Z,2576.25
2018-02-25T10:43:33.008Z,2581.88
2018-02-25T10:44:32.994Z,2503.13
2018-02-25T10:45:32.952Z,2497.50
2018-02-25T10:46:32.895Z,2553.75
2018-02-25T10:47:32.871Z,2581.88
2018-02-25T10:48:33.331Z,2604.38
2018-02-25T10:49:32.829Z,2626.88
2018-02-25T10:50:32.745Z,2626.88
2018-02-25T10:51:32.709Z,2570.63
2018-02-25T10:52:32.669Z,2621.25
2018-02-25T10:53:32.640Z,2671.88
2018-02-25T10:54:32.602Z,2638.13
2018-02-25T10:55:32.586Z,2559.38
2018-02-25T10:56:32.515Z,2587.50
2018-02-25T10:57:32.476Z,2666.25
2018-02-25T10:58:32.441Z,2677.50
2018-02-25T10:59:32.423Z,2604.38
2018-02-25T11:00:32.371Z,2632.50
2018-02-25T11:01:32.325Z,2626.88
2018-02-25T11:02:32.292Z,2581.88
2018-02-25T11:03:32.277Z,2598.75
2018-02-25T11:04:32.249Z,2626.88
2018-02-25T11:05:32.221Z,2660.63
2018-02-25T11:06:32.151Z,2587.50
2018-02-25T11:07:32.107Z,2581.88
2018-02-25T11:08:32.072Z,2598.75
2018-02-25T11:09:32.030Z,2587.50
2018-02-25T11:10:32.024Z,2666.25
2018-02-25T11:11:31.949Z,2660.63
2018-02-25T11:12:31.923Z,2660.63
2018-02-25T11:13:31.875Z,2683.13
2018-02-25T11:14:31.887Z,2660.63
2018-02-25T11:15:31.834Z,2688.75
2018-02-25T11:16:31.758Z,2632.50
2018-02-25T11:17:31.728Z,2581.88
2018-02-25T11:18:31.695Z,2626.88
2018-02-25T11:19:31.651Z,2643.75
2018-02-25T11:20:31.646Z,2576.25
2018-02-25T11:21:31.574Z,2525.63
2018-02-25T11:22:31.538Z,2581.88
2018-02-25T11:23:31.503Z,2615.63
2018-02-25T11:24:31.456Z,2587.50
2018-02-25T11:25:31.415Z,2581.88
2018-02-25T11:26:31.412Z,2576.25
2018-02-25T11:27:31.353Z,2548.13
2018-02-25T11:28:31.324Z,2570.63
2018-02-25T11:29:31.265Z,2565.00
2018-02-25T11:30:31.235Z,2514.38
2018-02-25T11:31:31.311Z,2508.75
2018-02-25T11:32:31.161Z,2497.50
2018-02-25T11:33:31.124Z,2508.75
2018-02-25T11:34:31.082Z,2452.50
2018-02-25T11:35:31.044Z,2475.00
2018-02-25T11:36:31.034Z,2475.00
2018-02-25T11:37:30.965Z,2424.38
2018-02-25T11:38:30.925Z,2390.63
2018-02-25T11:39:30.897Z,2463.75
2018-02-25T11:40:30.889Z,2480.63
2018-02-25T11:41:30.818Z,2458.13
2018-02-25T11:42:30.800Z,2480.63
2018-02-25T11:43:30.739Z,2463.75
2018-02-25T11:44:30.697Z,2413.13
2018-02-25T11:45:30.654Z,2401.88
2018-02-25T11:46:30.616Z,2418.75
2018-02-25T11:47:30.603Z,2396.25
2018-02-25T11:48:30.543Z,2396.25
2018-02-25T11:49:30.509Z,2418.75
2018-02-25T11:50:30.470Z,2430.00
2018-02-25T11:51:30.434Z,2430.00
2018-02-25T11:52:30.420Z,2424.38
2018-02-25T11:53:30.350Z,2458.13
2018-02-25T11:54:30.318Z,2503.13
2018-02-25T11:55:30.289Z,2458.13
2018-02-25T11:56:30.238Z,2424.38
2018-02-25T11:57:30.221Z,2424.38
2018-02-25T11:58:30.165Z,2418.75
2018-02-25T11:59:30.129Z,2396.25
2018-02-25T12:00:30.085Z,2311.88
2018-02-25T12:01:30.085Z,2407.50
2018-02-25T12:02:30.075Z,2430.00
2018-02-25T12:03:30.044Z,2396.25
2018-02-25T12:04:29.932Z,2401.88
2018-02-25T12:05:29.895Z,2351.25
2018-02-25T12:06:29.860Z,2373.75
2018-02-25T12:07:29.825Z,2413.13
2018-02-25T12:08:29.810Z,2430.00
2018-02-25T12:09:29.749Z,2385.00
2018-02-25T12:10:30.444Z,2317.50
2018-02-25T12:11:29.671Z,2311.88
2018-02-25T12:12:29.634Z,2328.75
2018-02-25T12:13:29.626Z,2295.00
2018-02-25T12:14:29.559Z,2283.75
2018-02-25T12:15:29.520Z,2278.13
2018-02-25T12:16:29.483Z,2289.38
2018-02-25T12:17:29.442Z,2250.00
2018-02-25T12:18:29.426Z,2250.00
2018-02-25T12:19:29.375Z,2283.75
2018-02-25T12:20:29.386Z,2250.00
2018-02-25T12:21:29.286Z,2233.13
2018-02-25T12:22:29.248Z,2221.88
2018-02-25T12:23:29.239Z,2266.88
2018-02-25T12:24:29.182Z,2261.25
2018-02-25T12:25:29.140Z,2193.75
2018-02-25T12:26:29.109Z,2216.25
2018-02-25T12:27:29.069Z,2193.75
2018-02-25T12:28:29.052Z,2221.88
2018-02-25T12:29:28.985Z,2238.75
2018-02-25T12:30:28.948Z,2221.88
2018-02-25T12:31:28.945Z,2233.13
2018-02-25T12:32:28.864Z,2244.38
2018-02-25T12:33:28.826Z,2221.88
2018-02-25T12:34:28.824Z,2261.25
2018-02-25T12:35:28.781Z,2261.25
2018-02-25T12:36:28.732Z,2244.38
2018-02-25T12:37:28.675Z,2250.00
2018-02-25T12:38:28.642Z,2182.50
2018-02-25T12:39:28.626Z,2171.25
2018-02-25T12:40:28.564Z,2176.88
2018-02-25T12:41:28.520Z,2148.75
2018-02-25T12:42:28.489Z,2165.63
2018-02-25T12:43:28.442Z,2165.63
2018-02-25T12:44:28.430Z,2120.63